Time;durP1;ratioP1;P1;durP2;ratioP2;P2;SDS_P1;SDS_P2;PMS_P1;PMS_P2;Temp;Humidity;BMP_temperature;BMP_pressure;BME280_temperature;BME280_humidity;BME280_pressure;Samples;Min_cycle;Max_cycle;Signal;HPM_P1;HPM_P2
2023/02/17 00:02:26;;;;;;;6.50;2.42;;;;;;;;;;10479754;28;20101;-78
2023/02/17 00:07:30;;;;;;;9.93;3.50;;;;;;;;;;10475381;28;20085;-80
2023/02/17 00:12:32;;;;;;;5.80;1.77;;;;;;;;;;10474500;28;20051;-79
2023/02/17 00:17:35;;;;;;;9.38;3.92;;;;;;;;;;10472863;28;20094;-79
2023/02/17 00:22:39;;;;;;;5.93;1.92;;;;;;;;;;10478048;28;20457;-79
2023/02/17 00:27:42;;;;;;;4.00;2.10;;;;;;;;;;10479849;28;20037;-79
2023/02/17 00:32:44;;;;;;;7.95;3.45;;;;;;;;;;10487286;28;20090;-80
2023/02/17 00:37:48;;;;;;;3.75;1.40;;;;;;;;;;10484000;28;20415;-79
2023/02/17 00:42:53;;;;;;;4.07;2.10;;;;;;;;;;10485317;28;20051;-78
2023/02/17 00:47:56;;;;;;;8.93;2.47;;;;;;;;;;10484169;28;20246;-79
2023/02/17 00:53:00;;;;;;;5.50;2.28;;;;;;;;;;10484112;28;20043;-78
2023/02/17 00:58:03;;;;;;;5.65;2.10;;;;;;;;;;10482571;28;20071;-77
2023/02/17 01:03:06;;;;;;;7.72;3.25;;;;;;;;;;10474240;28;20174;-79
2023/02/17 01:08:10;;;;;;;8.45;2.22;;;;;;;;;;10475241;28;20050;-80
2023/02/17 01:13:14;;;;;;;6.40;3.05;;;;;;;;;;10478393;28;20067;-80
2023/02/17 01:18:17;;;;;;;11.20;3.60;;;;;;;;;;10478046;28;20049;-79
2023/02/17 01:23:21;;;;;;;7.25;2.45;;;;;;;;;;10478554;28;20215;-78
2023/02/17 01:28:24;;;;;;;4.78;2.13;;;;;;;;;;10475611;28;20050;-78
2023/02/17 01:33:26;;;;;;;5.55;2.05;;;;;;;;;;10480994;28;20041;-78
2023/02/17 01:38:31;;;;;;;5.18;2.22;;;;;;;;;;10473434;28;20521;-76
2023/02/17 01:43:33;;;;;;;;;;;;;;;;;;10477150;28;20132;-77
2023/02/17 01:48:38;;;;;;;10.75;3.25;;;;;;;;;;10475189;28;19927;-76
2023/02/17 01:53:44;;;;;;;9.02;2.88;;;;;;;;;;10482535;28;20041;-75
2023/02/17 01:58:49;;;;;;;9.18;3.30;;;;;;;;;;10476964;28;20036;-77
2023/02/17 02:03:53;;;;;;;8.25;3.30;;;;;;;;;;10478173;28;20485;-77
2023/02/17 02:09:00;;;;;;;9.45;3.13;;;;;;;;;;10480229;28;20041;-76
2023/02/17 02:14:05;;;;;;;6.18;2.75;;;;;;;;;;10476164;28;20063;-77
2023/02/17 02:19:17;;;;;;;8.65;3.03;;;;;;;;;;10482544;28;20252;-79
2023/02/17 02:24:28;;;;;;;6.78;3.10;;;;;;;;;;10460306;28;20409;-78
2023/02/17 02:29:49;;;;;;;7.85;3.38;;;;;;;;;;10472944;28;20041;-78
2023/02/17 02:34:55;;;;;;;8.68;3.42;;;;;;;;;;10477627;28;21364;-78
2023/02/17 02:40:00;;;;;;;8.43;3.40;;;;;;;;;;10483880;28;20104;-80
2023/02/17 02:45:05;;;;;;;8.68;2.90;;;;;;;;;;10481637;28;20209;-79
2023/02/17 02:50:10;;;;;;;9.73;3.20;;;;;;;;;;10479346;28;20033;-78
2023/02/17 02:55:15;;;;;;;7.88;3.47;;;;;;;;;;10478309;28;20055;-78
2023/02/17 03:00:20;;;;;;;8.63;2.22;;;;;;;;;;10486486;28;20504;-78
2023/02/17 03:05:22;;;;;;;;;;;;;;;;;;10483110;28;20564;-80
2023/02/17 03:10:27;;;;;;;9.00;2.80;;;;;;;;;;10481176;28;19928;-80
2023/02/17 03:15:31;;;;;;;6.30;2.88;;;;;;;;;;10487076;28;20048;-80
2023/02/17 03:20:35;;;;;;;11.23;2.80;;;;;;;;;;10484658;28;20052;-78
2023/02/17 03:25:39;;;;;;;7.13;3.03;;;;;;;;;;10484078;28;20156;-78
2023/02/17 03:30:42;;;;;;;4.70;2.08;;;;;;;;;;10481872;28;20148;-78
2023/02/17 03:35:45;;;;;;;2.92;1.08;;;;;;;;;;10486192;28;20072;-78
2023/02/17 03:40:48;;;;;;;4.90;2.50;;;;;;;;;;10483366;28;20067;-77
2023/02/17 03:45:51;;;;;;;3.33;1.63;;;;;;;;;;10480555;28;20540;-78
2023/02/17 03:50:54;;;;;;;4.55;1.95;;;;;;;;;;10485505;28;20060;-79
2023/02/17 03:55:58;;;;;;;5.97;2.70;;;;;;;;;;10481453;28;20480;-76
2023/02/17 04:01:00;;;;;;;;;;;;;;;;;;10479957;28;20094;-80
2023/02/17 04:06:03;;;;;;;5.95;2.70;;;;;;;;;;10481503;28;19925;-80
2023/02/17 04:11:09;;;;;;;4.93;2.00;;;;;;;;;;10482239;28;20407;-78
2023/02/17 04:16:11;;;;;;;3.63;1.98;;;;;;;;;;10480067;28;20037;-78
2023/02/17 04:21:14;;;;;;;7.22;2.22;;;;;;;;;;10476579;28;20041;-78
2023/02/17 04:26:18;;;;;;;3.42;1.73;;;;;;;;;;10481501;28;20410;-76
2023/02/17 04:31:21;;;;;;;6.22;1.70;;;;;;;;;;10479291;28;20041;-78
2023/02/17 04:36:25;;;;;;;5.68;2.33;;;;;;;;;;10474422;28;20787;-77
2023/02/17 04:41:29;;;;;;;7.28;2.33;;;;;;;;;;10476370;28;20506;-78
2023/02/17 04:46:31;;;;;;;4.25;1.83;;;;;;;;;;10475016;28;20505;-78
2023/02/17 04:51:34;;;;;;;3.15;1.08;;;;;;;;;;10473683;28;20052;-79
2023/02/17 04:56:38;;;;;;;6.18;1.83;;;;;;;;;;10473870;28;20040;-78
2023/02/17 05:01:41;;;;;;;3.33;1.35;;;;;;;;;;10478706;28;20327;-77
2023/02/17 05:06:44;;;;;;;6.82;2.35;;;;;;;;;;10482740;28;20036;-78
2023/02/17 05:11:48;;;;;;;4.72;2.63;;;;;;;;;;10479100;28;20543;-77
2023/02/17 05:16:50;;;;;;;9.10;3.10;;;;;;;;;;10483081;28;20050;-78
2023/02/17 05:21:53;;;;;;;7.93;2.38;;;;;;;;;;10475422;28;20041;-77
2023/02/17 05:26:57;;;;;;;4.35;2.03;;;;;;;;;;10478535;28;20044;-76
2023/02/17 05:32:00;;;;;;;7.55;2.50;;;;;;;;;;10473427;28;20124;-79
2023/02/17 05:37:03;;;;;;;7.05;2.60;;;;;;;;;;10467503;28;20482;-78
2023/02/17 05:42:06;;;;;;;7.22;1.90;;;;;;;;;;10480850;28;20110;-77
2023/02/17 05:47:09;;;;;;;3.08;1.80;;;;;;;;;;10477740;28;20130;-79
2023/02/17 05:52:12;;;;;;;6.15;2.40;;;;;;;;;;10477858;28;20040;-78
2023/02/17 05:57:15;;;;;;;7.47;2.58;;;;;;;;;;10476865;28;20152;-78
2023/02/17 06:02:19;;;;;;;2.70;1.08;;;;;;;;;;10472547;28;20048;-78
2023/02/17 06:07:22;;;;;;;4.10;1.90;;;;;;;;;;10474485;28;20040;-78
2023/02/17 06:12:26;;;;;;;4.95;1.95;;;;;;;;;;10473599;28;20052;-77
2023/02/17 06:17:30;;;;;;;5.10;2.17;;;;;;;;;;10483603;28;20045;-78
2023/02/17 06:22:32;;;;;;;3.63;1.63;;;;;;;;;;10482050;28;20037;-79
2023/02/17 06:27:36;;;;;;;4.50;2.00;;;;;;;;;;10489408;28;20028;-78
2023/02/17 06:32:39;;;;;;;;;;;;;;;;;;10482073;28;20459;-80
2023/02/17 06:37:42;;;;;;;4.63;2.13;;;;;;;;;;10486890;28;20047;-80
2023/02/17 06:42:46;;;;;;;5.20;1.73;;;;;;;;;;10488155;28;20055;-80
2023/02/17 06:47:48;;;;;;;;;;;;;;;;;;10481802;28;20278;-78
2023/02/17 06:52:51;;;;;;;8.00;2.33;;;;;;;;;;10469750;28;19994;-77
2023/02/17 06:57:55;;;;;;;4.05;2.00;;;;;;;;;;10481132;28;20481;-79
2023/02/17 07:02:58;;;;;;;7.00;2.63;;;;;;;;;;10482068;28;20083;-79
2023/02/17 07:08:01;;;;;;;7.63;3.25;;;;;;;;;;10485592;28;20059;-78
2023/02/17 07:13:05;;;;;;;5.70;2.05;;;;;;;;;;10484862;28;20037;-78
2023/02/17 07:18:08;;;;;;;7.43;1.55;;;;;;;;;;10484298;28;20453;-77
2023/02/17 07:23:11;;;;;;;4.15;1.75;;;;;;;;;;10484373;28;20048;-80
2023/02/17 07:28:14;;;;;;;10.05;2.00;;;;;;;;;;10466974;28;20044;-78
2023/02/17 07:33:17;;;;;;;7.07;2.10;;;;;;;;;;10481346;28;20048;-78
2023/02/17 07:38:20;;;;;;;4.18;1.35;;;;;;;;;;10480952;28;20266;-78
2023/02/17 07:43:24;;;;;;;8.00;2.70;;;;;;;;;;10480089;28;20109;-76
2023/02/17 07:48:27;;;;;;;4.57;2.10;;;;;;;;;;10475852;28;20426;-78
2023/02/17 07:53:29;;;;;;;6.88;2.05;;;;;;;;;;10479847;28;20123;-78
2023/02/17 07:58:34;;;;;;;7.88;2.17;;;;;;;;;;10478194;28;20033;-78
2023/02/17 08:03:37;;;;;;;8.05;2.00;;;;;;;;;;10481218;28;20517;-78
2023/02/17 08:14:01;;;;;;;5.45;2.25;;;;;;;;;;10478136;28;20052;-77
2023/02/17 08:19:04;;;;;;;5.05;1.98;;;;;;;;;;10475888;28;20059;-79
2023/02/17 08:24:09;;;;;;;5.10;1.60;;;;;;;;;;10480785;28;20465;-77
2023/02/17 08:29:13;;;;;;;7.63;1.98;;;;;;;;;;10479550;28;20067;-78
2023/02/17 08:34:16;;;;;;;;;;;;;;;;;;10479461;28;20060;-85
2023/02/17 08:39:18;;;;;;;6.57;1.75;;;;;;;;;;10485073;28;19920;-80
2023/02/17 08:44:22;;;;;;;4.13;1.25;;;;;;;;;;10478692;28;20464;-79
2023/02/17 08:49:27;;;;;;;6.03;2.20;;;;;;;;;;10479898;28;20494;-78
2023/02/17 08:54:30;;;;;;;4.80;1.23;;;;;;;;;;10475132;28;20064;-79
2023/02/17 08:59:34;;;;;;;4.03;1.60;;;;;;;;;;10474175;28;21988;-81
2023/02/17 09:04:36;;;;;;;7.65;2.10;;;;;;;;;;10475375;28;20049;-79
2023/02/17 09:09:39;;;;;;;9.90;2.30;;;;;;;;;;10479287;28;20116;-79
2023/02/17 09:14:44;;;;;;;6.90;2.00;;;;;;;;;;10475999;28;20313;-80
2023/02/17 09:19:47;;;;;;;6.85;2.28;;;;;;;;;;10491692;28;20225;-80
2023/02/17 09:24:50;;;;;;;7.80;1.90;;;;;;;;;;10478568;28;20239;-80
2023/02/17 09:29:54;;;;;;;4.15;1.98;;;;;;;;;;10472923;28;20041;-80
2023/02/17 09:35:00;;;;;;;6.80;2.25;;;;;;;;;;10478654;28;20041;-80
2023/02/17 09:40:04;;;;;;;7.70;1.67;;;;;;;;;;10475951;28;20139;-80
2023/02/17 09:45:11;;;;;;;5.00;1.60;;;;;;;;;;10478178;28;20123;-79
2023/02/17 09:50:16;;;;;;;5.45;2.45;;;;;;;;;;10483476;28;20085;-79
2023/02/17 09:55:23;;;;;;;5.55;2.58;;;;;;;;;;10483475;28;20044;-80
2023/02/17 10:00:30;;;;;;;6.38;2.22;;;;;;;;;;10488375;28;20040;-80
2023/02/17 10:05:35;;;;;;;3.92;1.88;;;;;;;;;;10482879;28;20151;-80
2023/02/17 10:10:41;;;;;;;7.20;2.88;;;;;;;;;;10482779;28;20135;-79
2023/02/17 10:15:48;;;;;;;8.55;2.90;;;;;;;;;;10486543;28;20045;-79
2023/02/17 10:20:52;;;;;;;5.25;2.50;;;;;;;;;;10490601;28;20382;-79
2023/02/17 10:26:05;;;;;;;8.82;2.75;;;;;;;;;;10485118;28;20132;-81
2023/02/17 10:31:11;;;;;;;3.35;2.17;;;;;;;;;;10479574;28;20538;-79
2023/02/17 10:36:20;;;;;;;5.30;2.22;;;;;;;;;;10493168;28;20083;-80
2023/02/17 10:41:26;;;;;;;6.68;2.03;;;;;;;;;;10492901;28;20505;-80
2023/02/17 10:46:31;;;;;;;7.65;2.22;;;;;;;;;;10484550;28;20060;-80
2023/02/17 10:51:33;;;;;;;5.80;2.15;;;;;;;;;;10484392;28;20063;-80
2023/02/17 10:56:38;;;;;;;5.28;2.40;;;;;;;;;;10476195;28;20155;-78
2023/02/17 11:01:43;;;;;;;4.88;2.45;;;;;;;;;;10486707;28;20032;-80
2023/02/17 11:06:48;;;;;;;8.55;2.75;;;;;;;;;;10481148;28;20047;-79
2023/02/17 11:11:57;;;;;;;7.18;2.15;;;;;;;;;;10483860;28;20075;-80
2023/02/17 11:17:02;;;;;;;5.35;2.42;;;;;;;;;;10481614;28;20049;-78
2023/02/17 11:22:06;;;;;;;5.68;1.88;;;;;;;;;;10482930;28;22317;-80
2023/02/17 11:27:09;;;;;;;8.25;1.80;;;;;;;;;;10484474;28;20050;-80
2023/02/17 11:32:13;;;;;;;5.38;2.35;;;;;;;;;;10484243;28;20122;-80
2023/02/17 11:37:20;;;;;;;5.07;2.17;;;;;;;;;;10464460;28;20109;-78
2023/02/17 11:42:23;;;;;;;4.35;1.63;;;;;;;;;;10481522;28;20106;-75
2023/02/17 11:47:34;;;;;;;7.13;2.00;;;;;;;;;;10478225;28;20040;-77
2023/02/17 11:52:49;;;;;;;9.43;2.15;;;;;;;;;;10475641;28;20040;-77
2023/02/17 11:57:57;;;;;;;8.40;2.10;;;;;;;;;;10476070;28;20044;-78
2023/02/17 12:03:21;;;;;;;4.78;1.83;;;;;;;;;;10479115;28;20052;-77
2023/02/17 12:08:32;;;;;;;7.88;1.60;;;;;;;;;;10453566;28;20110;-80
2023/02/17 12:13:39;;;;;;;4.65;1.92;;;;;;;;;;10481563;28;20052;-78
2023/02/17 12:18:48;;;;;;;6.18;1.92;;;;;;;;;;10477143;28;20114;-77
2023/02/17 12:24:21;;;;;;;5.25;2.08;;;;;;;;;;10477666;28;20048;-77
2023/02/17 12:29:29;;;;;;;5.60;1.87;;;;;;;;;;10475813;28;20215;-77
2023/02/17 12:34:34;;;;;;;3.22;1.52;;;;;;;;;;10473233;28;20067;-78
2023/02/17 12:39:42;;;;;;;5.47;1.92;;;;;;;;;;10471412;28;20140;-79
2023/02/17 12:44:47;;;;;;;4.40;1.60;;;;;;;;;;10478257;28;20768;-78
2023/02/17 12:49:53;;;;;;;3.72;1.55;;;;;;;;;;10476884;28;20056;-78
2023/02/17 12:54:58;;;;;;;5.20;1.52;;;;;;;;;;10476399;28;20040;-78
2023/02/17 13:00:04;;;;;;;5.85;1.63;;;;;;;;;;10473847;28;20422;-79
2023/02/17 13:05:13;;;;;;;5.10;2.20;;;;;;;;;;10478936;28;20401;-79
2023/02/17 13:10:27;;;;;;;5.32;2.10;;;;;;;;;;10485503;28;20467;-77
2023/02/17 13:15:35;;;;;;;3.65;1.80;;;;;;;;;;10475282;28;20477;-77
2023/02/17 13:20:44;;;;;;;5.20;1.75;;;;;;;;;;10456765;28;20043;-78
2023/02/17 13:26:00;;;;;;;4.18;1.50;;;;;;;;;;10477824;28;20048;-78
2023/02/17 13:31:11;;;;;;;5.20;2.10;;;;;;;;;;10479761;28;20055;-78
2023/02/17 13:36:16;;;;;;;6.85;1.63;;;;;;;;;;10475858;28;20040;-78
2023/02/17 13:41:20;;;;;;;4.03;1.23;;;;;;;;;;10487003;28;20102;-78
2023/02/17 13:46:24;;;;;;;4.15;1.67;;;;;;;;;;10486351;28;20648;-78
2023/02/17 13:51:28;;;;;;;5.38;1.80;;;;;;;;;;10481578;28;20040;-78
2023/02/17 13:56:32;;;;;;;3.70;1.35;;;;;;;;;;10484897;28;20126;-79
2023/02/17 14:01:36;;;;;;;1.95;1.30;;;;;;;;;;10489257;28;20042;-78
2023/02/17 14:06:39;;;;;;;3.38;1.25;;;;;;;;;;10487705;28;20045;-79
2023/02/17 14:11:44;;;;;;;4.33;1.57;;;;;;;;;;10492153;28;20045;-77
2023/02/17 14:16:46;;;;;;;;;;;;;;;;;;10493933;28;20044;-77
2023/02/17 14:21:57;;;;;;;2.78;1.27;;;;;;;;;;10492318;28;19969;-79
2023/02/17 14:27:02;;;;;;;5.70;1.92;;;;;;;;;;10482021;28;20052;-79
2023/02/17 14:32:05;;;;;;;3.17;1.23;;;;;;;;;;10498611;28;20051;-77
2023/02/17 14:37:08;;;;;;;4.33;2.00;;;;;;;;;;10492692;28;20047;-76
2023/02/17 14:42:12;;;;;;;5.47;1.40;;;;;;;;;;10494379;28;20504;-77
2023/02/17 14:47:14;;;;;;;;;;;;;;;;;;10492607;28;20059;-78
2023/02/17 14:52:19;;;;;;;1.80;1.10;;;;;;;;;;10483374;28;19925;-78
2023/02/17 14:57:26;;;;;;;3.25;1.48;;;;;;;;;;10486351;28;20073;-77
2023/02/17 15:02:30;;;;;;;2.00;1.15;;;;;;;;;;10484263;28;20444;-77
2023/02/17 15:07:32;;;;;;;2.67;1.23;;;;;;;;;;10489213;28;20109;-77
2023/02/17 15:12:36;;;;;;;2.70;1.40;;;;;;;;;;10482344;28;20067;-77
2023/02/17 15:17:39;;;;;;;4.18;1.55;;;;;;;;;;10481883;28;20044;-77
2023/02/17 15:22:43;;;;;;;3.40;1.52;;;;;;;;;;10482713;28;20057;-77
2023/02/17 15:27:47;;;;;;;3.97;1.50;;;;;;;;;;10484035;28;20055;-77
2023/02/17 15:32:53;;;;;;;2.33;1.50;;;;;;;;;;10488413;28;20040;-79
2023/02/17 15:37:56;;;;;;;4.57;1.50;;;;;;;;;;10480495;28;20043;-77
2023/02/17 15:43:02;;;;;;;7.73;1.53;;;;;;;;;;10484347;28;20036;-77
2023/02/17 15:48:06;;;;;;;3.67;1.65;;;;;;;;;;10475398;28;20084;-76
2023/02/17 15:53:08;;;;;;;;;;;;;;;;;;10468893;28;20088;-78
2023/02/17 15:58:15;;;;;;;3.70;1.55;;;;;;;;;;10482183;28;19925;-77
2023/02/17 16:03:18;;;;;;;4.68;2.10;;;;;;;;;;10482862;28;20047;-77
2023/02/17 16:08:20;;;;;;;5.28;1.63;;;;;;;;;;10480172;28;20043;-78
2023/02/17 16:13:26;;;;;;;2.22;1.45;;;;;;;;;;10484313;28;20048;-77
2023/02/17 16:18:30;;;;;;;3.78;1.40;;;;;;;;;;10469187;28;20098;-78
2023/02/17 16:23:32;;;;;;;2.88;1.30;;;;;;;;;;10480008;28;20110;-78
2023/02/17 16:28:36;;;;;;;1.52;1.02;;;;;;;;;;10484112;28;20045;-78
2023/02/17 16:33:39;;;;;;;2.17;0.98;;;;;;;;;;10477681;28;20043;-78
2023/02/17 16:38:42;;;;;;;2.35;0.85;;;;;;;;;;10473689;28;20102;-77
2023/02/17 16:43:46;;;;;;;3.40;1.60;;;;;;;;;;10478145;28;20543;-77
2023/02/17 16:48:48;;;;;;;;;;;;;;;;;;10483601;28;20045;-78
2023/02/17 16:53:51;;;;;;;4.70;1.30;;;;;;;;;;10479275;28;20308;-77
2023/02/17 16:58:55;;;;;;;2.47;0.95;;;;;;;;;;10488014;28;20055;-78
2023/02/17 17:03:58;;;;;;;4.50;1.05;;;;;;;;;;10483043;28;20124;-78
2023/02/17 17:09:00;;;;;;;3.40;1.50;;;;;;;;;;10485810;28;20040;-77
2023/02/17 17:14:04;;;;;;;2.55;1.30;;;;;;;;;;10484596;28;20063;-79
2023/02/17 17:19:08;;;;;;;4.93;1.45;;;;;;;;;;10482866;28;20051;-79
2023/02/17 17:24:10;;;;;;;2.23;1.30;;;;;;;;;;10479143;28;20391;-79
2023/02/17 17:29:16;;;;;;;2.45;1.30;;;;;;;;;;10486586;28;20444;-80
2023/02/17 17:34:18;;;;;;;3.22;1.35;;;;;;;;;;10481172;28;20037;-78
2023/02/17 17:39:22;;;;;;;2.85;1.20;;;;;;;;;;10486122;28;20478;-79
2023/02/17 17:44:27;;;;;;;3.53;1.48;;;;;;;;;;10487585;28;20039;-79
2023/02/17 17:49:29;;;;;;;3.17;1.45;;;;;;;;;;10484579;28;20044;-77
2023/02/17 17:54:33;;;;;;;3.55;1.13;;;;;;;;;;10486268;28;20071;-78
2023/02/17 17:59:37;;;;;;;3.13;1.70;;;;;;;;;;10491818;28;20033;-78
2023/02/17 18:04:39;;;;;;;;;;;;;;;;;;10487329;28;20047;-77
2023/02/17 18:09:51;;;;;;;4.45;1.15;;;;;;;;;;10490862;28;19996;-77
2023/02/17 18:15:00;;;;;;;1.75;0.90;;;;;;;;;;10488461;28;20048;-78
2023/02/17 18:20:03;;;;;;;4.93;1.00;;;;;;;;;;10506150;28;20056;-77
2023/02/17 18:25:06;;;;;;;4.88;1.55;;;;;;;;;;10495648;28;20041;-77
2023/02/17 18:30:12;;;;;;;1.10;0.83;;;;;;;;;;10491303;28;20090;-75
2023/02/17 18:35:15;;;;;;;4.88;1.50;;;;;;;;;;10489932;28;20523;-79
2023/02/17 18:40:19;;;;;;;3.35;1.20;;;;;;;;;;10488795;28;20113;-78
2023/02/17 18:45:22;;;;;;;;;;;;;;;;;;10491525;28;20041;-78
2023/02/17 18:50:26;;;;;;;2.65;1.27;;;;;;;;;;10490301;28;19973;-77
2023/02/17 18:55:28;;;;;;;2.35;1.08;;;;;;;;;;10490656;28;20033;-77
2023/02/17 19:00:31;;;;;;;3.03;1.45;;;;;;;;;;10489874;28;20094;-77
2023/02/17 19:05:35;;;;;;;2.88;1.58;;;;;;;;;;10488373;28;20126;-77
2023/02/17 19:10:37;;;;;;;;;;;;;;;;;;10492423;28;20115;-76
2023/02/17 19:15:40;;;;;;;2.42;1.38;;;;;;;;;;10493679;28;19974;-77
2023/02/17 19:20:44;;;;;;;4.53;1.50;;;;;;;;;;10489401;28;20699;-78
2023/02/17 19:25:47;;;;;;;4.90;1.98;;;;;;;;;;10489618;28;20072;-79
2023/02/17 19:30:49;;;;;;;3.38;1.40;;;;;;;;;;10493639;28;20044;-78
2023/02/17 19:35:54;;;;;;;6.53;1.20;;;;;;;;;;10486054;28;20547;-77
2023/02/17 19:40:56;;;;;;;;;;;;;;;;;;10476619;28;20056;-78
2023/02/17 19:45:59;;;;;;;3.30;1.92;;;;;;;;;;10485996;28;20335;-75
2023/02/17 19:51:04;;;;;;;3.67;1.50;;;;;;;;;;10488255;28;20041;-76
2023/02/17 19:56:08;;;;;;;1.10;0.82;;;;;;;;;;10482604;28;20045;-78
2023/02/17 20:01:15;;;;;;;2.33;1.50;;;;;;;;;;10484024;28;20557;-78
2023/02/17 20:06:20;;;;;;;3.05;1.45;;;;;;;;;;10480552;28;20803;-79
2023/02/17 20:11:22;;;;;;;1.25;1.00;;;;;;;;;;10478180;28;20045;-79
2023/02/17 20:16:26;;;;;;;2.50;1.20;;;;;;;;;;10483393;28;20090;-78
2023/02/17 20:21:31;;;;;;;3.23;1.40;;;;;;;;;;10479997;28;20040;-77
2023/02/17 20:26:37;;;;;;;1.95;0.90;;;;;;;;;;10483651;28;20040;-78
2023/02/17 20:31:41;;;;;;;2.42;1.40;;;;;;;;;;10480694;28;20398;-78
2023/02/17 20:36:45;;;;;;;2.20;1.17;;;;;;;;;;10482620;28;20106;-78
2023/02/17 20:41:47;;;;;;;1.30;1.02;;;;;;;;;;10481285;28;20079;-79
2023/02/17 20:46:50;;;;;;;3.60;1.80;;;;;;;;;;10477662;28;20052;-78
2023/02/17 20:51:56;;;;;;;2.40;0.82;;;;;;;;;;10481167;28;20119;-78
2023/02/17 20:56:59;;;;;;;3.38;1.35;;;;;;;;;;10483923;28;20040;-80
2023/02/17 21:02:02;;;;;;;3.70;1.27;;;;;;;;;;10474338;28;20040;-78
2023/02/17 21:07:06;;;;;;;2.03;0.93;;;;;;;;;;10479795;28;20044;-79
2023/02/17 21:12:09;;;;;;;4.38;1.67;;;;;;;;;;10477615;28;20599;-78
2023/02/17 21:17:12;;;;;;;3.85;1.50;;;;;;;;;;10478062;28;20059;-78
2023/02/17 21:22:17;;;;;;;4.00;1.60;;;;;;;;;;10477535;28;20059;-79
2023/02/17 21:27:19;;;;;;;2.63;1.67;;;;;;;;;;10485048;28;20545;-77
2023/02/17 21:32:22;;;;;;;4.78;1.48;;;;;;;;;;10482214;28;20040;-78
2023/02/17 21:37:26;;;;;;;4.27;1.13;;;;;;;;;;10480113;28;20776;-77
2023/02/17 21:47:48;;;;;;;3.88;1.77;;;;;;;;;;10452318;28;20147;-78
2023/02/17 21:52:52;;;;;;;3.58;2.20;;;;;;;;;;10484705;28;20120;-78
2023/02/17 21:57:54;;;;;;;;;;;;;;;;;;10477410;28;20448;-80
2023/02/17 22:02:57;;;;;;;3.97;1.88;;;;;;;;;;10478227;28;20023;-77
2023/02/17 22:08:01;;;;;;;2.72;0.95;;;;;;;;;;10481675;28;20109;-77
2023/02/17 22:13:03;;;;;;;7.28;1.88;;;;;;;;;;10484116;28;20056;-78
2023/02/17 22:18:06;;;;;;;3.10;1.77;;;;;;;;;;10485716;28;20045;-80
2023/02/17 22:23:10;;;;;;;3.10;1.50;;;;;;;;;;10485452;28;20047;-78
2023/02/17 22:28:12;;;;;;;;;;;;;;;;;;10479941;28;20117;-76
2023/02/17 22:33:15;;;;;;;3.38;1.20;;;;;;;;;;10478304;28;20405;-80
2023/02/17 22:38:19;;;;;;;2.75;1.60;;;;;;;;;;10479266;28;20045;-77
2023/02/17 22:43:22;;;;;;;4.00;1.55;;;;;;;;;;10475696;28;20041;-78
2023/02/17 22:48:24;;;;;;;3.03;1.48;;;;;;;;;;10479922;28;20386;-77
2023/02/17 22:53:28;;;;;;;3.38;1.63;;;;;;;;;;10477707;28;20059;-77
2023/02/17 22:58:31;;;;;;;3.78;1.67;;;;;;;;;;10487738;28;20543;-78
2023/02/17 23:03:34;;;;;;;4.57;1.98;;;;;;;;;;10485654;28;20530;-78
2023/02/17 23:08:38;;;;;;;3.17;1.98;;;;;;;;;;10484712;28;20375;-78
2023/02/17 23:13:40;;;;;;;;;;;;;;;;;;10486465;28;20044;-78
2023/02/17 23:18:43;;;;;;;3.88;1.98;;;;;;;;;;10482342;28;19920;-79
2023/02/17 23:23:47;;;;;;;3.30;1.30;;;;;;;;;;10481489;28;20379;-77
2023/02/17 23:28:49;;;;;;;4.03;1.67;;;;;;;;;;10485721;28;20044;-78
2023/02/17 23:33:52;;;;;;;3.15;1.88;;;;;;;;;;10486350;28;20080;-79
2023/02/17 23:38:57;;;;;;;3.70;1.25;;;;;;;;;;10485525;28;20042;-78
2023/02/17 23:44:00;;;;;;;3.78;1.67;;;;;;;;;;10490419;28;20040;-78
2023/02/17 23:49:03;;;;;;;4.70;1.95;;;;;;;;;;10482430;28;20082;-78
2023/02/17 23:54:07;;;;;;;3.55;1.85;;;;;;;;;;10480449;28;20496;-77
2023/02/17 23:59:10;;;;;;;4.85;1.80;;;;;;;;;;10482079;28;20477;-77
